TimeCST,TemperatureF,Dew PointF,Humidity,Sea Level PressureIn,VisibilityMPH,Wind Direction,Wind SpeedMPH,Gust SpeedMPH,PrecipitationIn,Events,Conditions,WindDirDegrees,DateUTC
12:54 AM,1.0,-0.0,95,30.19,10.0,Calm,Calm,-,N/A,,Clear,0,2013-03-03 06:54:00
1:54 AM,1.9,-0.9,88,30.17,10.0,Calm,Calm,-,N/A,,Partly Cloudy,0,2013-03-03 07:54:00
3:54 AM,-0.0,-4.0,83,30.16,10.0,Calm,Calm,-,N/A,,Clear,0,2013-03-03 09:54:00
4:54 AM,-2.9,-6.0,87,30.17,10.0,Calm,Calm,-,N/A,,Clear,0,2013-03-03 10:54:00
5:54 AM,1.9,-4.0,76,30.19,10.0,Calm,Calm,-,N/A,,Clear,0,2013-03-03 11:54:00
6:54 AM,-0.0,-4.0,83,30.19,10.0,Calm,Calm,-,N/A,,Clear,0,2013-03-03 12:54:00
7:54 AM,3.9,-0.9,80,30.19,10.0,NNW,3.5,-,N/A,,Clear,330,2013-03-03 13:54:00
8:54 AM,12.9,6.1,74,30.17,10.0,North,4.6,-,N/A,,Clear,350,2013-03-03 14:54:00
9:54 AM,19.9,8.1,60,30.17,10.0,Variable,3.5,-,N/A,,Clear,0,2013-03-03 15:54:00
10:54 AM,21.9,6.1,51,30.16,10.0,North,8.1,-,N/A,,Clear,10,2013-03-03 16:54:00
11:54 AM,25.0,6.1,45,30.13,10.0,North,8.1,-,N/A,,Clear,10,2013-03-03 17:54:00
12:54 PM,27.0,6.1,41,30.12,10.0,North,3.5,-,N/A,,Clear,10,2013-03-03 18:54:00
1:54 PM,28.9,6.1,38,30.10,10.0,NNW,3.5,-,N/A,,Clear,340,2013-03-03 19:54:00
2:54 PM,30.0,6.1,36,30.10,10.0,NNE,4.6,-,N/A,,Clear,20,2013-03-03 20:54:00
3:54 PM,30.0,5.0,35,30.10,10.0,NNW,4.6,-,N/A,,Clear,330,2013-03-03 21:54:00
4:54 PM,28.0,5.0,38,30.10,10.0,North,3.5,-,N/A,,Clear,350,2013-03-03 22:54:00
5:54 PM,21.9,3.0,44,30.11,10.0,Calm,Calm,-,N/A,,Clear,0,2013-03-03 23:54:00
6:54 PM,18.0,6.1,60,30.12,10.0,ENE,4.6,-,N/A,,Clear,60,2013-03-04 00:54:00
7:54 PM,19.9,8.1,60,30.14,10.0,ENE,4.6,-,N/A,,Clear,70,2013-03-04 01:54:00
9:54 PM,8.1,3.9,83,30.16,10.0,Calm,Calm,-,N/A,,Clear,0,2013-03-04 03:54:00
10:54 PM,6.1,1.9,83,30.15,10.0,Calm,Calm,-,N/A,,Clear,0,2013-03-04 04:54:00
11:54 PM,3.0,-0.9,84,30.16,10.0,Calm,Calm,-,N/A,,Clear,0,2013-03-04 05:54:00